createdAt,value
2022-12-11T00:00:10.267Z,-8.22
2022-12-11T00:01:10.903Z,-8.21
2022-12-11T00:02:10.007Z,-8.21
2022-12-11T00:03:15.398Z,-8.2
2022-12-11T00:04:12.316Z,-8.18
2022-12-11T00:05:12.545Z,-8.16
2022-12-11T00:06:14.342Z,-8.17
2022-12-11T00:07:12.444Z,-8.18
2022-12-11T00:08:12.763Z,-8.17
2022-12-11T00:09:12.404Z,-8.15
2022-12-11T00:10:12.411Z,-8.14
2022-12-11T00:11:13.441Z,-8.14
2022-12-11T00:12:12.512Z,-8.15
2022-12-11T00:13:12.438Z,-8.16
2022-12-11T00:14:13.222Z,-8.18
2022-12-11T00:15:13.072Z,-8.17
2022-12-11T00:16:12.623Z,-8.16
2022-12-11T00:17:12.550Z,-8.18
2022-12-11T00:18:13.200Z,-8.17
2022-12-11T00:19:12.530Z,-8.19
2022-12-11T00:20:12.541Z,-8.16
2022-12-11T00:21:13.877Z,-8.11
2022-12-11T00:22:12.578Z,-8.13
2022-12-11T00:23:12.587Z,-8.14
2022-12-11T00:24:12.604Z,-8.14
2022-12-11T00:25:13.092Z,-8.15
2022-12-11T00:26:13.701Z,-8.17
2022-12-11T00:27:12.689Z,-8.16
2022-12-11T00:28:14.142Z,-8.09
2022-12-11T00:29:12.861Z,-8.09
2022-12-11T00:30:13.481Z,-8.1
2022-12-11T00:31:14.783Z,-8.11
2022-12-11T00:32:12.794Z,-8.11
2022-12-11T00:33:13.673Z,-8.14
2022-12-11T00:34:12.746Z,-8.15
2022-12-11T00:35:13.151Z,-8.12
2022-12-11T00:36:17.380Z,-8.08
2022-12-11T00:37:13.790Z,-8.06
2022-12-11T00:38:17.714Z,-8.07
2022-12-11T00:39:13.954Z,-8.1
2022-12-11T00:40:13.980Z,-8.11
2022-12-11T00:41:14.146Z,-8.16
2022-12-11T00:42:13.977Z,-8.17
2022-12-11T00:43:14.047Z,-8.17
2022-12-11T00:44:14.014Z,-8.17
2022-12-11T00:45:14.178Z,-8.19
2022-12-11T00:46:14.697Z,-8.17
2022-12-11T00:47:14.152Z,-8.18
2022-12-11T00:48:14.047Z,-8.16
2022-12-11T00:49:14.188Z,-8.17
2022-12-11T00:50:14.123Z,-8.16
2022-12-11T00:51:14.125Z,-8.14
2022-12-11T00:52:14.089Z,-8.13
2022-12-11T00:53:14.535Z,-8.13
2022-12-11T00:54:14.130Z,-8.09
2022-12-11T00:55:14.294Z,-8.08
2022-12-11T00:57:14.539Z,-8.06
2022-12-11T00:58:14.596Z,-8.07
2022-12-11T00:59:14.493Z,-8.07
2022-12-11T01:00:14.727Z,-8.06
2022-12-11T01:01:15.995Z,-8.02
2022-12-11T01:02:14.572Z,-8.05
2022-12-11T01:03:14.753Z,-8.05
2022-12-11T01:04:14.546Z,-8.04
2022-12-11T01:05:14.776Z,-8.03
2022-12-11T01:06:18.979Z,-8.04
2022-12-11T01:07:15.207Z,-8
2022-12-11T01:08:15.236Z,-8.04
2022-12-11T01:09:15.219Z,-8.02
2022-12-11T01:10:15.590Z,-7.95
2022-12-11T01:11:16.373Z,-7.88
2022-12-11T01:12:15.273Z,-7.93
2022-12-11T01:13:15.358Z,-7.97
2022-12-11T01:14:15.271Z,-7.99
2022-12-11T01:15:15.499Z,-7.98
2022-12-11T01:16:15.484Z,-7.95
2022-12-11T01:17:15.324Z,-7.92
2022-12-11T01:18:15.354Z,-7.9
2022-12-11T01:19:15.363Z,-7.88
2022-12-11T01:20:15.448Z,-7.88
2022-12-11T01:21:15.437Z,-7.88
2022-12-11T01:22:15.395Z,-7.88
2022-12-11T01:23:15.389Z,-7.86
2022-12-11T01:24:15.416Z,-7.84
2022-12-11T01:25:15.453Z,-7.89
2022-12-11T01:26:15.614Z,-7.88
2022-12-11T01:27:15.630Z,-7.87
2022-12-11T01:28:15.461Z,-7.83
2022-12-11T01:29:15.574Z,-7.81
2022-12-11T01:30:15.504Z,-7.8
2022-12-11T01:31:16.323Z,-7.83
2022-12-11T01:32:16.008Z,-7.82
2022-12-11T01:33:15.526Z,-7.83
2022-12-11T01:34:15.551Z,-7.83
2022-12-11T01:35:15.912Z,-7.81
2022-12-11T01:36:18.023Z,-7.81
2022-12-11T01:37:15.593Z,-7.8
2022-12-11T01:38:15.595Z,-7.79
2022-12-11T01:39:15.598Z,-7.82
2022-12-11T01:40:16.763Z,-7.79
2022-12-11T01:41:16.177Z,-7.79
2022-12-11T01:42:17.963Z,-7.75
2022-12-11T01:43:15.650Z,-7.75
2022-12-11T01:46:18.707Z,-7.73
2022-12-11T01:47:19.021Z,-7.7
2022-12-11T01:48:23.478Z,-7.71
2022-12-11T01:49:21.344Z,-7.71
2022-12-11T01:50:19.929Z,-7.72
2022-12-11T01:51:20.229Z,-7.74
2022-12-11T01:52:21.085Z,-7.73
2022-12-11T01:53:22.601Z,-7.72
2022-12-11T01:54:21.374Z,-7.7
2022-12-11T01:55:20.437Z,-7.71
2022-12-11T01:56:19.967Z,-7.68
2022-12-11T01:57:19.823Z,-7.66
2022-12-11T01:58:20.688Z,-7.69
2022-12-11T01:59:23.327Z,-7.68
2022-12-11T02:00:20.415Z,-7.68
2022-12-11T02:02:24.309Z,-7.64
2022-12-11T02:03:21.793Z,-7.63
2022-12-11T02:04:21.783Z,-7.63
2022-12-11T02:05:21.647Z,-7.57
2022-12-11T02:07:26.084Z,-7.58
2022-12-11T02:08:26.176Z,-7.6
2022-12-11T02:09:33.075Z,-7.59
2022-12-11T02:22:03.256Z,-7.53
2022-12-11T02:29:17.851Z,-7.52
2022-12-11T02:30:16.023Z,-7.54
2022-12-11T02:33:27.052Z,-7.52
2022-12-11T02:34:28.519Z,-7.49
2022-12-11T02:36:32.111Z,-7.48
2022-12-11T02:37:30.991Z,-7.48
2022-12-11T02:38:32.221Z,-7.46
2022-12-11T02:39:31.104Z,-7.46
2022-12-11T02:40:30.740Z,-7.48
2022-12-11T02:41:29.766Z,-7.46
2022-12-11T02:42:31.125Z,-7.47
2022-12-11T02:43:30.742Z,-7.49
2022-12-11T02:44:31.838Z,-7.45
2022-12-11T02:45:30.984Z,-7.46
2022-12-11T02:46:30.829Z,-7.42
2022-12-11T02:47:30.250Z,-7.4
2022-12-11T02:48:30.350Z,-7.42
2022-12-11T02:49:31.198Z,-7.38
2022-12-11T02:50:30.154Z,-7.36
2022-12-11T02:51:32.335Z,-7.39
2022-12-11T02:52:31.182Z,-7.41
2022-12-11T02:53:31.309Z,-7.44
2022-12-11T02:54:31.761Z,-7.43
2022-12-11T02:55:32.046Z,-7.41
2022-12-11T02:56:32.934Z,-7.41
2022-12-11T02:58:32.965Z,-7.36
2022-12-11T02:59:33.798Z,-7.32
2022-12-11T03:00:30.929Z,-7.34
2022-12-11T03:01:30.854Z,-7.31
2022-12-11T03:02:30.854Z,-7.34
2022-12-11T03:03:30.747Z,-7.36
2022-12-11T03:04:31.784Z,-7.32
2022-12-11T03:05:30.782Z,-7.33
2022-12-11T03:07:33.118Z,-7.35
2022-12-11T03:08:31.805Z,-7.38
2022-12-11T03:09:31.764Z,-7.37
2022-12-11T03:10:31.448Z,-7.36
2022-12-11T03:11:31.331Z,-7.36
2022-12-11T03:12:32.756Z,-7.36
2022-12-11T03:13:31.386Z,-7.35
2022-12-11T03:14:31.493Z,-7.35
2022-12-11T03:16:37.576Z,-7.34
2022-12-11T03:21:58.204Z,-7.31
2022-12-11T03:25:03.977Z,-7.25
2022-12-11T03:28:09.213Z,-7.25
2022-12-11T03:29:18.073Z,-7.28
2022-12-11T03:30:14.668Z,-7.29
2022-12-11T03:31:14.443Z,-7.29
2022-12-11T03:32:19.090Z,-7.28
2022-12-11T03:33:18.987Z,-7.26
2022-12-11T03:34:22.414Z,-7.24
2022-12-11T03:37:23.522Z,-7.24
2022-12-11T03:40:27.674Z,-7.25
2022-12-11T03:41:27.832Z,-7.24
2022-12-11T03:42:27.322Z,-7.22
2022-12-11T03:43:28.394Z,-7.21
2022-12-11T03:44:27.761Z,-7.18
2022-12-11T03:45:28.610Z,-7.18
2022-12-11T03:47:29.660Z,-7.17
2022-12-11T03:48:30.738Z,-7.16
2022-12-11T03:49:30.130Z,-7.17
2022-12-11T03:50:30.810Z,-7.17
2022-12-11T03:51:29.557Z,-7.15
2022-12-11T03:52:28.990Z,-7.13
2022-12-11T03:53:28.419Z,-7.13
2022-12-11T03:54:28.988Z,-7.12
2022-12-11T03:55:29.383Z,-7.16
2022-12-11T03:56:30.660Z,-7.14
2022-12-11T03:58:30.752Z,-7.12
2022-12-11T03:59:30.580Z,-7.13
2022-12-11T04:00:30.743Z,-7.13
2022-12-11T04:01:30.662Z,-7.16
2022-12-11T04:02:30.827Z,-7.14
2022-12-11T04:03:30.659Z,-7.12
2022-12-11T04:04:30.641Z,-7.13
2022-12-11T04:05:30.584Z,-7.14
2022-12-11T04:06:30.618Z,-7.14
2022-12-11T04:07:30.678Z,-7.09
2022-12-11T04:08:30.670Z,-7.07
2022-12-11T04:09:30.650Z,-7.05
2022-12-11T04:10:30.692Z,-7.08
2022-12-11T04:11:30.689Z,-7.07
2022-12-11T04:12:30.731Z,-7.07
2022-12-11T04:13:30.709Z,-7.06
2022-12-11T04:14:31.283Z,-7.05
2022-12-11T04:15:30.757Z,-7.07
2022-12-11T04:16:30.734Z,-7.07
2022-12-11T04:17:31.821Z,-7.03
2022-12-11T04:18:30.802Z,-7.03
2022-12-11T04:19:30.781Z,-7.05
2022-12-11T04:20:30.847Z,-7.02
2022-12-11T04:21:35.088Z,-7.01
2022-12-11T04:22:34.148Z,-7.01
2022-12-11T04:23:34.098Z,-7.03
2022-12-11T04:24:34.377Z,-7.04
2022-12-11T04:25:34.160Z,-7.03
2022-12-11T04:26:34.150Z,-7.03
2022-12-11T04:27:34.278Z,-6.99
2022-12-11T04:28:34.479Z,-6.94
2022-12-11T04:29:34.172Z,-6.95
2022-12-11T04:30:34.632Z,-6.93
2022-12-11T04:31:34.312Z,-6.95
2022-12-11T04:32:34.295Z,-6.99
2022-12-11T04:33:34.252Z,-6.99
2022-12-11T04:34:34.260Z,-6.99
2022-12-11T04:35:34.288Z,-7.01
2022-12-11T04:36:34.325Z,-6.98
2022-12-11T04:37:34.779Z,-6.98
2022-12-11T04:38:34.351Z,-6.95
2022-12-11T04:39:34.291Z,-6.95
2022-12-11T04:40:34.328Z,-6.95
2022-12-11T04:41:34.676Z,-6.97
2022-12-11T04:42:34.344Z,-6.98
2022-12-11T04:43:34.882Z,-6.98
2022-12-11T04:44:34.402Z,-7.01
2022-12-11T04:45:34.407Z,-6.97
2022-12-11T04:46:34.521Z,-6.95
2022-12-11T04:47:35.557Z,-6.98
2022-12-11T04:48:34.477Z,-6.98
2022-12-11T04:49:34.514Z,-6.97
2022-12-11T04:50:34.452Z,-6.95
2022-12-11T04:51:34.495Z,-6.93
2022-12-11T04:52:34.510Z,-6.92
2022-12-11T04:53:34.996Z,-6.94
2022-12-11T04:54:34.548Z,-6.93
2022-12-11T04:55:34.526Z,-6.94
2022-12-11T04:56:34.536Z,-6.93
2022-12-11T04:57:34.709Z,-6.95
2022-12-11T04:58:34.805Z,-6.93
2022-12-11T04:59:34.625Z,-6.92
2022-12-11T05:00:34.584Z,-6.94
2022-12-11T05:01:34.620Z,-6.95
2022-12-11T05:02:35.465Z,-6.95
2022-12-11T05:03:34.957Z,-6.98
2022-12-11T05:04:35.063Z,-6.97
2022-12-11T05:05:34.625Z,-6.96
2022-12-11T05:06:34.653Z,-6.94
2022-12-11T05:07:34.947Z,-6.92
2022-12-11T05:08:35.639Z,-6.94
2022-12-11T05:09:34.971Z,-6.94
2022-12-11T05:10:34.736Z,-6.91
2022-12-11T05:11:36.023Z,-6.92
2022-12-11T05:12:34.743Z,-6.92
2022-12-11T05:13:34.753Z,-6.9
2022-12-11T05:14:34.778Z,-6.88
2022-12-11T05:15:34.974Z,-6.88
2022-12-11T05:16:34.831Z,-6.91
2022-12-11T05:17:34.798Z,-6.92
2022-12-11T05:18:35.139Z,-6.89
2022-12-11T05:19:34.831Z,-6.88
2022-12-11T05:20:34.895Z,-6.88
2022-12-11T05:21:35.446Z,-6.88
2022-12-11T05:22:34.961Z,-6.89
2022-12-11T05:23:35.156Z,-6.87
2022-12-11T05:24:34.902Z,-6.91
2022-12-11T05:25:34.974Z,-6.92
2022-12-11T05:26:34.941Z,-6.92
2022-12-11T05:27:34.931Z,-6.89
2022-12-11T05:28:36.373Z,-6.89
2022-12-11T05:29:34.948Z,-6.86
2022-12-11T05:30:34.974Z,-6.83
2022-12-11T05:31:35.204Z,-6.84
2022-12-11T05:32:35.017Z,-6.85
2022-12-11T05:33:35.138Z,-6.86
2022-12-11T05:34:35.034Z,-6.86
2022-12-11T05:35:35.050Z,-6.88
2022-12-11T05:36:35.048Z,-6.84
2022-12-11T05:37:35.044Z,-6.83
2022-12-11T05:38:35.113Z,-6.88
2022-12-11T05:39:35.118Z,-6.83
2022-12-11T05:40:35.116Z,-6.82
2022-12-11T05:41:35.107Z,-6.82
2022-12-11T05:42:35.123Z,-6.83
2022-12-11T05:43:36.378Z,-6.85
2022-12-11T05:44:35.133Z,-6.82
2022-12-11T05:45:35.175Z,-6.79
2022-12-11T05:46:35.324Z,-6.75
2022-12-11T05:47:35.181Z,-6.77
2022-12-11T05:48:35.966Z,-6.77
2022-12-11T05:49:35.279Z,-6.76
2022-12-11T05:50:35.222Z,-6.73
2022-12-11T05:51:35.294Z,-6.74
2022-12-11T05:52:35.239Z,-6.76
2022-12-11T05:53:36.137Z,-6.74
2022-12-11T05:54:35.282Z,-6.76
2022-12-11T05:55:35.399Z,-6.75
2022-12-11T05:56:35.454Z,-6.74
2022-12-11T05:57:35.297Z,-6.73
2022-12-11T05:58:35.826Z,-6.74
2022-12-11T05:59:35.335Z,-6.74
2022-12-11T06:00:36.310Z,-6.72
2022-12-11T06:02:36.122Z,-6.71
2022-12-11T06:03:35.504Z,-6.7
2022-12-11T06:04:35.470Z,-6.71
2022-12-11T06:05:39.042Z,-6.73
2022-12-11T06:06:35.796Z,-6.71
2022-12-11T06:07:35.526Z,-6.69
2022-12-11T06:08:35.586Z,-6.68
2022-12-11T06:09:35.526Z,-6.64
2022-12-11T06:10:35.575Z,-6.62
2022-12-11T06:11:35.703Z,-6.62
2022-12-11T06:12:35.617Z,-6.62
2022-12-11T06:13:36.058Z,-6.63
2022-12-11T06:14:35.630Z,-6.59
2022-12-11T06:15:35.624Z,-6.6
2022-12-11T06:16:35.698Z,-6.62
2022-12-11T06:17:35.645Z,-6.61
2022-12-11T06:18:39.994Z,-6.61
2022-12-11T06:19:37.125Z,-6.61
2022-12-11T06:20:36.262Z,-6.62
2022-12-11T06:21:36.256Z,-6.59
2022-12-11T06:22:36.256Z,-6.6
2022-12-11T06:23:36.295Z,-6.6
2022-12-11T06:24:36.586Z,-6.56
2022-12-11T06:25:38.707Z,-6.57
2022-12-11T06:26:36.296Z,-6.56
2022-12-11T06:27:36.319Z,-6.57
2022-12-11T06:28:36.540Z,-6.6
2022-12-11T06:29:36.345Z,-6.59
2022-12-11T06:30:38.974Z,-6.57
2022-12-11T06:31:36.546Z,-6.56
2022-12-11T06:32:36.376Z,-6.58
2022-12-11T06:33:36.423Z,-6.57
2022-12-11T06:34:36.420Z,-6.6
2022-12-11T06:35:42.068Z,-6.57
2022-12-11T06:36:39.818Z,-6.59
2022-12-11T06:37:39.263Z,-6.59
2022-12-11T06:38:38.863Z,-6.58
2022-12-11T06:39:38.841Z,-6.54
2022-12-11T06:40:39.017Z,-6.55
2022-12-11T06:41:38.852Z,-6.55
2022-12-11T06:42:38.902Z,-6.57
2022-12-11T06:43:39.714Z,-6.54
2022-12-11T06:44:38.954Z,-6.51
2022-12-11T06:45:38.983Z,-6.48
2022-12-11T06:46:38.941Z,-6.49
2022-12-11T06:47:39.106Z,-6.5
2022-12-11T06:48:39.140Z,-6.52
2022-12-11T06:49:38.991Z,-6.51
2022-12-11T06:50:39.071Z,-6.5
2022-12-11T06:51:39.327Z,-6.48
2022-12-11T06:52:39.151Z,-6.49
2022-12-11T06:53:39.373Z,-6.5
2022-12-11T06:54:39.049Z,-6.5
2022-12-11T06:55:39.087Z,-6.46
2022-12-11T06:56:39.284Z,-6.46
2022-12-11T06:57:39.173Z,-6.45
2022-12-11T06:58:39.517Z,-6.47
2022-12-11T06:59:39.207Z,-6.43
2022-12-11T07:00:39.221Z,-6.44
2022-12-11T07:01:39.181Z,-6.45
2022-12-11T07:02:39.283Z,-6.47
2022-12-11T07:03:39.182Z,-6.44
2022-12-11T07:04:39.206Z,-6.44
2022-12-11T07:05:39.259Z,-6.46
2022-12-11T07:06:39.242Z,-6.45
2022-12-11T07:07:39.324Z,-6.45
2022-12-11T07:08:39.772Z,-6.43
2022-12-11T07:09:40.121Z,-6.41
2022-12-11T07:10:39.391Z,-6.42
2022-12-11T07:11:39.362Z,-6.42
2022-12-11T07:12:39.349Z,-6.42
2022-12-11T07:13:39.761Z,-6.41
2022-12-11T07:14:39.363Z,-6.41
2022-12-11T07:15:40.642Z,-6.41
2022-12-11T07:16:39.454Z,-6.41
2022-12-11T07:17:39.632Z,-6.38
2022-12-11T07:18:40.331Z,-6.39
2022-12-11T07:19:39.564Z,-6.4
2022-12-11T07:20:39.457Z,-6.38
2022-12-11T07:21:39.591Z,-6.4
2022-12-11T07:22:46.020Z,-6.38
2022-12-11T07:23:42.818Z,-6.38
2022-12-11T07:24:42.792Z,-6.39
2022-12-11T07:25:42.809Z,-6.36
2022-12-11T07:26:42.834Z,-6.37
2022-12-11T07:27:42.827Z,-6.36
2022-12-11T07:28:43.370Z,-6.35
2022-12-11T07:29:42.846Z,-6.38
2022-12-11T07:30:43.039Z,-6.38
2022-12-11T07:31:43.075Z,-6.37
2022-12-11T07:32:43.014Z,-6.37
2022-12-11T07:33:43.482Z,-6.36
2022-12-11T07:34:46.060Z,-6.34
2022-12-11T07:35:46.376Z,-6.34
2022-12-11T07:36:46.407Z,-6.35
2022-12-11T07:37:46.431Z,-6.36
2022-12-11T07:38:46.515Z,-6.37
2022-12-11T07:39:46.467Z,-6.36
2022-12-11T07:40:46.471Z,-6.35
2022-12-11T07:41:46.490Z,-6.33
2022-12-11T07:42:46.564Z,-6.33
2022-12-11T07:43:46.746Z,-6.33
2022-12-11T07:44:46.687Z,-6.34
2022-12-11T07:45:46.627Z,-6.31
2022-12-11T07:46:46.568Z,-6.31
2022-12-11T07:47:46.613Z,-6.32
2022-12-11T07:48:47.483Z,-6.31
2022-12-11T07:49:47.667Z,-6.33
2022-12-11T07:50:46.629Z,-6.32
2022-12-11T07:51:46.628Z,-6.3
2022-12-11T07:52:46.723Z,-6.3
2022-12-11T07:53:49.070Z,-6.32
2022-12-11T07:54:46.697Z,-6.32
2022-12-11T07:55:46.674Z,-6.3
2022-12-11T07:56:52.784Z,-6.31
2022-12-11T07:57:49.937Z,-6.32
2022-12-11T07:58:50.263Z,-6.33
2022-12-11T07:59:49.965Z,-6.35
2022-12-11T08:00:50.053Z,-6.33
2022-12-11T08:01:50.184Z,-6.32
2022-12-11T08:02:50.036Z,-6.32
2022-12-11T08:03:50.068Z,-6.32
2022-12-11T08:04:50.037Z,-6.3
2022-12-11T08:05:50.644Z,-6.29
2022-12-11T08:06:50.255Z,-6.3
2022-12-11T08:07:50.166Z,-6.3
2022-12-11T08:08:50.126Z,-6.3
2022-12-11T08:09:50.120Z,-6.28
2022-12-11T08:10:50.136Z,-6.27
2022-12-11T08:11:50.353Z,-6.29
2022-12-11T08:12:50.142Z,-6.28
2022-12-11T08:13:50.280Z,-6.28
2022-12-11T08:14:50.247Z,-6.28
2022-12-11T08:15:50.211Z,-6.28
2022-12-11T08:16:50.332Z,-6.26
2022-12-11T08:17:50.302Z,-6.27
2022-12-11T08:18:50.264Z,-6.25
2022-12-11T08:19:50.333Z,-6.26
2022-12-11T08:20:50.314Z,-6.24
2022-12-11T08:21:50.305Z,-6.29
2022-12-11T08:22:54.607Z,-6.29
2022-12-11T08:23:54.209Z,-6.34
2022-12-11T08:24:53.821Z,-6.32
2022-12-11T08:25:53.824Z,-6.31
2022-12-11T08:26:53.837Z,-6.32
2022-12-11T08:27:53.857Z,-6.32
2022-12-11T08:28:54.359Z,-6.3
2022-12-11T08:29:53.923Z,-6.31
2022-12-11T08:30:53.940Z,-6.29
2022-12-11T08:31:54.001Z,-6.27
2022-12-11T08:32:53.917Z,-6.3
2022-12-11T08:33:55.007Z,-6.28
2022-12-11T08:34:54.008Z,-6.29
2022-12-11T08:35:54.027Z,-6.28
2022-12-11T08:36:53.991Z,-6.27
2022-12-11T08:37:54.011Z,-6.28
2022-12-11T08:38:54.845Z,-6.28
2022-12-11T08:39:54.068Z,-6.28
2022-12-11T08:40:54.079Z,-6.23
2022-12-11T08:41:54.085Z,-6.22
2022-12-11T08:42:54.101Z,-6.23
2022-12-11T08:43:54.399Z,-6.22
2022-12-11T08:44:54.136Z,-6.21
2022-12-11T08:45:54.172Z,-6.26
2022-12-11T08:46:54.160Z,-6.28
2022-12-11T08:47:54.175Z,-6.28
2022-12-11T08:48:54.772Z,-6.26
2022-12-11T08:49:54.246Z,-6.23
2022-12-11T08:50:54.224Z,-6.26
2022-12-11T08:51:54.235Z,-6.24
2022-12-11T08:52:54.265Z,-6.25
2022-12-11T08:53:58.022Z,-6.25
2022-12-11T08:54:54.326Z,-6.28
2022-12-11T08:55:54.365Z,-6.25
2022-12-11T08:56:58.007Z,-6.25
2022-12-11T08:57:54.638Z,-6.27
2022-12-11T08:58:54.649Z,-6.24
2022-12-11T08:59:54.611Z,-6.22
2022-12-11T09:00:54.730Z,-6.22
2022-12-11T09:01:55.183Z,-6.2
2022-12-11T09:02:54.767Z,-6.19
2022-12-11T09:03:55.106Z,-6.19
2022-12-11T09:04:54.762Z,-6.17
2022-12-11T09:05:54.716Z,-6.14
2022-12-11T09:06:54.721Z,-6.15
2022-12-11T09:07:54.800Z,-6.15
2022-12-11T09:08:55.589Z,-6.2
2022-12-11T09:09:55.399Z,-6.24
2022-12-11T09:10:54.806Z,-6.21
2022-12-11T09:11:54.870Z,-6.22
2022-12-11T09:12:54.846Z,-6.26
2022-12-11T09:13:55.182Z,-6.23
2022-12-11T09:14:54.861Z,-6.23
2022-12-11T09:15:54.928Z,-6.21
2022-12-11T09:16:54.902Z,-6.2
2022-12-11T09:17:54.934Z,-6.21
2022-12-11T09:18:56.376Z,-6.23
2022-12-11T09:19:55.007Z,-6.23
2022-12-11T09:22:00.417Z,-6.25
2022-12-11T09:23:01.185Z,-6.26
2022-12-11T09:24:00.947Z,-6.22
2022-12-11T09:25:00.520Z,-6.21
2022-12-11T09:26:03.153Z,-6.21
2022-12-11T09:27:01.057Z,-6.22
2022-12-11T09:28:00.980Z,-6.24
2022-12-11T09:29:02.304Z,-6.26
2022-12-11T09:30:01.269Z,-6.22
2022-12-11T09:31:01.239Z,-6.21
2022-12-11T09:32:01.255Z,-6.21
2022-12-11T09:33:01.117Z,-6.22
2022-12-11T09:34:02.785Z,-6.2
2022-12-11T09:35:01.129Z,-6.2
2022-12-11T09:36:01.627Z,-6.18
2022-12-11T09:37:01.579Z,-6.19
2022-12-11T09:38:01.176Z,-6.21
2022-12-11T09:39:02.517Z,-6.22
2022-12-11T09:40:07.091Z,-6.25
2022-12-11T09:45:15.758Z,-6.26
2022-12-11T09:46:15.844Z,-6.24
2022-12-11T09:50:24.335Z,-6.23
2022-12-11T09:51:27.690Z,-6.26
2022-12-11T09:52:30.642Z,-6.29
2022-12-11T09:53:34.094Z,-6.27
2022-12-11T09:54:31.616Z,-6.3
2022-12-11T10:00:49.177Z,-6.27
2022-12-11T10:08:05.763Z,-6.32
2022-12-11T10:15:26.578Z,-6.34
2022-12-11T10:17:27.433Z,-6.35
2022-12-11T10:18:26.060Z,-6.37
2022-12-11T10:19:30.526Z,-6.38
2022-12-11T10:20:29.834Z,-6.42
2022-12-11T10:21:29.653Z,-6.43
2022-12-11T10:22:29.867Z,-6.43
2022-12-11T10:23:30.282Z,-6.4
2022-12-11T10:26:31.199Z,-6.38
2022-12-11T10:27:35.673Z,-6.4
2022-12-11T10:28:32.031Z,-6.43
2022-12-11T10:29:31.914Z,-6.4
2022-12-11T10:34:48.481Z,-6.42
2022-12-11T10:36:48.196Z,-6.47
2022-12-11T10:37:48.448Z,-6.45
2022-12-11T10:38:48.205Z,-6.46
2022-12-11T10:39:48.242Z,-6.48
2022-12-11T10:40:54.840Z,-6.48
2022-12-11T10:41:52.685Z,-6.47
2022-12-11T10:42:51.773Z,-6.48
2022-12-11T10:43:52.900Z,-6.49
2022-12-11T10:45:54.484Z,-6.6
2022-12-11T10:48:01.799Z,-6.56
2022-12-11T10:48:57.775Z,-6.6
2022-12-11T10:49:58.732Z,-6.65
2022-12-11T10:51:04.383Z,-6.62
2022-12-11T10:51:56.897Z,-6.57
2022-12-11T10:52:56.250Z,-6.58
2022-12-11T10:54:02.593Z,-6.56
2022-12-11T10:55:02.326Z,-6.59
2022-12-11T10:55:59.844Z,-6.59
2022-12-11T10:57:00.440Z,-6.61
2022-12-11T10:58:03.785Z,-6.59
2022-12-11T10:59:01.238Z,-6.6
2022-12-11T11:00:00.809Z,-6.56
2022-12-11T11:01:10.943Z,-6.58
2022-12-11T11:02:04.208Z,-6.58
2022-12-11T11:03:03.748Z,-6.6
2022-12-11T11:04:04.047Z,-6.61
2022-12-11T11:10:17.875Z,-6.61
2022-12-11T11:12:25.092Z,-6.67
2022-12-11T11:13:23.328Z,-6.65
2022-12-11T11:14:22.212Z,-6.64
2022-12-11T11:15:30.931Z,-6.66
2022-12-11T11:16:22.678Z,-6.64
2022-12-11T11:17:22.618Z,-6.64
2022-12-11T11:18:25.990Z,-6.6
2022-12-11T11:19:33.391Z,-6.6
2022-12-11T11:20:26.452Z,-6.6
2022-12-11T11:21:25.836Z,-6.59
2022-12-11T11:22:25.147Z,-6.6
2022-12-11T11:23:25.349Z,-6.63
2022-12-11T11:24:34.847Z,-6.7
2022-12-11T11:25:28.660Z,-6.73
2022-12-11T11:26:43.559Z,-6.7
2022-12-11T11:29:34.188Z,-6.7
2022-12-11T11:30:41.796Z,-6.71
2022-12-11T11:31:34.337Z,-6.7
2022-12-11T11:32:36.147Z,-6.7
2022-12-11T11:33:34.280Z,-6.69
2022-12-11T11:34:33.076Z,-6.69
2022-12-11T11:35:33.109Z,-6.67
2022-12-11T11:36:34.754Z,-6.68
2022-12-11T11:37:33.930Z,-6.67
2022-12-11T11:39:41.747Z,-6.69
2022-12-11T11:40:41.817Z,-6.76
2022-12-11T11:43:46.669Z,-6.78
2022-12-11T11:44:52.523Z,-6.81
2022-12-11T11:46:01.830Z,-6.79
2022-12-11T11:47:06.810Z,-6.82
2022-12-11T11:51:07.751Z,-6.82
2022-12-11T11:52:11.974Z,-6.8
2022-12-11T11:55:20.217Z,-6.78
2022-12-11T11:56:17.973Z,-6.82
2022-12-11T11:58:18.743Z,-6.8
2022-12-11T12:00:23.810Z,-6.77
2022-12-11T12:01:20.688Z,-6.8
2022-12-11T12:02:20.564Z,-6.77
2022-12-11T12:03:21.436Z,-6.79
2022-12-11T12:04:20.099Z,-6.82
2022-12-11T12:05:25.631Z,-6.8
2022-12-11T12:07:40.676Z,-6.77
2022-12-11T12:10:34.584Z,-6.8
2022-12-11T12:12:43.240Z,-6.75
2022-12-11T12:14:55.092Z,-6.75
2022-12-11T12:17:56.306Z,-6.74
2022-12-11T12:25:24.100Z,-6.73
2022-12-11T12:27:50.928Z,-6.75
2022-12-11T12:30:30.739Z,-6.72
2022-12-11T12:32:44.941Z,-6.73
2022-12-11T12:33:46.025Z,-6.74
2022-12-11T12:34:45.229Z,-6.75
2022-12-11T12:35:55.812Z,-6.73
2022-12-11T12:47:10.354Z,-6.68
2022-12-11T12:48:08.311Z,-6.68
2022-12-11T12:49:10.605Z,-6.71
2022-12-11T12:51:12.936Z,-6.7
2022-12-11T12:54:17.652Z,-6.74
2022-12-11T12:56:19.486Z,-6.71
2022-12-11T12:57:18.522Z,-6.74
2022-12-11T12:59:25.700Z,-6.71
2022-12-11T13:01:26.205Z,-6.7
2022-12-11T13:02:24.405Z,-6.7
2022-12-11T13:03:25.711Z,-6.77
2022-12-11T13:04:54.581Z,-6.73
2022-12-11T13:05:27.060Z,-6.71
2022-12-11T13:06:29.155Z,-6.74
2022-12-11T13:07:27.384Z,-6.73
2022-12-11T13:08:26.693Z,-6.74
2022-12-11T13:09:26.477Z,-6.73
2022-12-11T13:10:30.555Z,-6.72
2022-12-11T13:11:34.270Z,-6.74
2022-12-11T13:12:32.972Z,-6.78
2022-12-11T13:13:33.026Z,-6.77
2022-12-11T13:14:31.206Z,-6.76
2022-12-11T13:15:38.303Z,-6.77
2022-12-11T13:17:38.020Z,-6.75
2022-12-11T13:18:38.488Z,-6.77
2022-12-11T13:19:42.074Z,-6.78
2022-12-11T13:20:46.404Z,-6.77
2022-12-11T13:21:42.645Z,-6.79
2022-12-11T13:23:44.806Z,-6.77
2022-12-11T13:25:54.103Z,-6.76
2022-12-11T13:26:51.142Z,-6.76
2022-12-11T13:27:50.546Z,-6.74
2022-12-11T13:28:50.502Z,-6.75
2022-12-11T13:29:50.507Z,-6.77
2022-12-11T13:31:56.853Z,-6.75
2022-12-11T13:32:58.665Z,-6.74
2022-12-11T13:33:57.076Z,-6.72
2022-12-11T13:34:58.268Z,-6.74
2022-12-11T13:36:56.125Z,-6.71
2022-12-11T13:37:58.487Z,-6.72
2022-12-11T13:39:57.363Z,-6.72
2022-12-11T13:40:56.807Z,-6.72
2022-12-11T13:41:59.635Z,-6.72
2022-12-11T13:43:02.255Z,-6.71
2022-12-11T13:43:58.733Z,-6.74
2022-12-11T13:44:58.760Z,-6.73
2022-12-11T13:46:02.780Z,-6.7
2022-12-11T13:47:00.338Z,-6.73
2022-12-11T13:47:59.456Z,-6.76
2022-12-11T13:49:01.060Z,-6.74
2022-12-11T13:51:01.484Z,-6.7
2022-12-11T13:52:01.349Z,-6.67
2022-12-11T13:53:03.391Z,-6.67
2022-12-11T13:54:16.475Z,-6.68
2022-12-11T13:55:16.564Z,-6.69
2022-12-11T13:56:16.017Z,-6.69
2022-12-11T13:57:17.140Z,-6.69
2022-12-11T13:58:20.677Z,-6.67
2022-12-11T13:59:23.234Z,-6.68
2022-12-11T14:00:24.817Z,-6.71
2022-12-11T14:01:24.288Z,-6.7
2022-12-11T14:02:29.699Z,-6.68
2022-12-11T14:03:26.622Z,-6.68
2022-12-11T14:04:27.158Z,-6.7
2022-12-11T14:05:26.674Z,-6.69
2022-12-11T14:06:27.266Z,-6.71
2022-12-11T14:07:28.150Z,-6.69
2022-12-11T14:08:30.738Z,-6.7
2022-12-11T14:09:28.096Z,-6.72
2022-12-11T14:10:29.432Z,-6.69
2022-12-11T14:11:30.133Z,-6.68
2022-12-11T14:12:28.310Z,-6.67
2022-12-11T14:13:31.301Z,-6.69
2022-12-11T14:15:33.271Z,-6.68
2022-12-11T14:16:32.221Z,-6.7
2022-12-11T14:17:33.923Z,-6.69
2022-12-11T14:18:32.922Z,-6.69
2022-12-11T14:19:31.991Z,-6.68
2022-12-11T14:20:33.279Z,-6.7
2022-12-11T14:21:32.507Z,-6.71
2022-12-11T14:22:32.037Z,-6.69
2022-12-11T14:23:36.120Z,-6.71
2022-12-11T14:24:32.774Z,-6.7
2022-12-11T14:25:32.918Z,-6.72
2022-12-11T14:26:33.995Z,-6.7
2022-12-11T14:27:32.973Z,-6.71
2022-12-11T14:28:41.656Z,-6.69
2022-12-11T14:29:33.784Z,-6.69
2022-12-11T14:30:35.464Z,-6.71
2022-12-11T14:31:37.042Z,-6.7
2022-12-11T14:32:36.350Z,-6.69
2022-12-11T14:33:36.861Z,-6.68
2022-12-11T14:34:41.797Z,-6.73
2022-12-11T14:35:40.045Z,-6.77
2022-12-11T14:36:39.392Z,-6.76
2022-12-11T14:37:39.243Z,-6.77
2022-12-11T14:38:42.717Z,-6.73
2022-12-11T14:39:44.480Z,-6.69
2022-12-11T14:40:43.286Z,-6.7
2022-12-11T14:41:53.646Z,-6.71
2022-12-11T14:42:57.072Z,-6.69
2022-12-11T14:43:50.055Z,-6.69
2022-12-11T14:44:56.929Z,-6.68
2022-12-11T14:45:49.867Z,-6.68
2022-12-11T14:46:50.158Z,-6.7
2022-12-11T14:47:49.569Z,-6.7
2022-12-11T14:49:00.607Z,-6.71
2022-12-11T14:49:56.665Z,-6.7
2022-12-11T14:50:54.997Z,-6.7
2022-12-11T14:51:54.208Z,-6.7
2022-12-11T14:52:56.869Z,-6.7
2022-12-11T14:53:54.133Z,-6.69
2022-12-11T14:54:59.986Z,-6.68
2022-12-11T14:55:57.894Z,-6.71
2022-12-11T14:56:57.329Z,-6.74
2022-12-11T14:57:58.858Z,-6.7
2022-12-11T14:59:01.731Z,-6.72
2022-12-11T14:59:58.858Z,-6.71
2022-12-11T15:00:59.683Z,-6.73
2022-12-11T15:01:59.818Z,-6.73
2022-12-11T15:03:02.680Z,-6.72
2022-12-11T15:07:19.676Z,-6.69
2022-12-11T15:11:24.523Z,-6.71
2022-12-11T15:12:22.585Z,-6.71
2022-12-11T15:13:23.627Z,-6.69
2022-12-11T15:14:23.669Z,-6.7
2022-12-11T15:15:22.826Z,-6.71
2022-12-11T15:16:24.181Z,-6.68
2022-12-11T15:17:23.348Z,-6.69
2022-12-11T15:18:24.102Z,-6.7
2022-12-11T15:19:30.547Z,-6.71
2022-12-11T15:20:29.134Z,-6.68
2022-12-11T15:21:36.129Z,-6.7
2022-12-11T15:22:30.978Z,-6.7
2022-12-11T15:23:28.740Z,-6.76
2022-12-11T15:24:30.366Z,-6.74
2022-12-11T15:25:28.851Z,-6.74
2022-12-11T15:27:39.065Z,-6.76
2022-12-11T15:28:33.072Z,-6.76
2022-12-11T15:29:32.903Z,-6.72